createdAt,value
2019-02-18T00:02:28.436Z,14.65
2019-02-18T00:05:04.242Z,14.70
2019-02-18T00:07:38.835Z,14.35
2019-02-18T00:10:09.708Z,14.52
2019-02-18T00:12:40.359Z,14.84
2019-02-18T00:15:11.120Z,14.73
2019-02-18T00:17:42.550Z,14.62
2019-02-18T00:20:16.980Z,14.55
2019-02-18T00:22:52.042Z,14.30
2019-02-18T00:25:26.184Z,14.31
2019-02-18T00:27:57.534Z,14.08
2019-02-18T00:30:40.881Z,13.93
2019-02-18T00:33:20.410Z,14.12
2019-02-18T00:35:55.334Z,14.31
2019-02-18T00:38:28.317Z,14.22
2019-02-18T00:41:17.127Z,14.50
2019-02-18T00:43:54.503Z,14.34
2019-02-18T00:46:37.934Z,14.10
2019-02-18T00:49:14.226Z,13.89
2019-02-18T00:51:45.906Z,14.09
2019-02-18T00:54:18.615Z,14.02
2019-02-18T00:56:49.352Z,14.23
2019-02-18T00:59:20.869Z,14.45
2019-02-18T01:02:21.924Z,14.38
2019-02-18T01:05:17.847Z,14.34
2019-02-18T01:07:52.392Z,14.33
2019-02-18T01:10:29.328Z,14.42
2019-02-18T01:13:08.728Z,14.30
2019-02-18T01:15:49.872Z,14.00
2019-02-18T01:18:24.941Z,13.90
2019-02-18T01:21:08.020Z,14.03
2019-02-18T01:23:38.302Z,14.10
2019-02-18T01:26:10.168Z,13.86
2019-02-18T01:28:43.124Z,13.99
2019-02-18T01:31:15.181Z,14.16
2019-02-18T01:34:01.321Z,13.83
2019-02-18T01:36:38.818Z,13.65
2019-02-18T01:39:24.457Z,13.52
2019-02-18T01:42:17.233Z,13.47
2019-02-18T01:44:50.773Z,13.79
2019-02-18T01:47:23.750Z,13.83
2019-02-18T01:49:54.862Z,13.65
2019-02-18T01:52:25.142Z,13.56
2019-02-18T01:55:25.322Z,13.58
2019-02-18T01:58:09.230Z,13.49
2019-02-18T02:00:46.730Z,13.69
2019-02-18T02:03:25.557Z,13.73
2019-02-18T02:06:02.752Z,13.73
2019-02-18T02:08:50.141Z,13.45
2019-02-18T02:11:25.029Z,13.55
2019-02-18T02:14:00.017Z,13.44
2019-02-18T02:16:30.971Z,13.49
2019-02-18T02:19:04.013Z,13.15
2019-02-18T02:21:37.375Z,13.54
2019-02-18T02:24:08.351Z,13.38
2019-02-18T02:26:38.526Z,13.39
2019-02-18T02:29:12.432Z,13.53
2019-02-18T02:31:44.329Z,13.50
2019-02-18T02:34:18.055Z,13.51
2019-02-18T02:36:49.208Z,13.44
2019-02-18T02:39:19.870Z,13.36
2019-02-18T02:41:50.850Z,13.20
2019-02-18T02:44:23.933Z,13.19
2019-02-18T02:46:56.382Z,12.96
2019-02-18T02:49:26.613Z,13.02
2019-02-18T02:51:59.721Z,13.16
2019-02-18T02:54:31.068Z,13.28
2019-02-18T02:57:03.886Z,13.30
2019-02-18T02:59:37.110Z,13.17
2019-02-18T03:02:10.529Z,13.08
2019-02-18T03:04:43.498Z,13.12
2019-02-18T03:07:14.146Z,13.03
2019-02-18T03:09:45.869Z,12.97
2019-02-18T03:12:17.919Z,13.14
2019-02-18T03:14:49.388Z,13.38
2019-02-18T03:17:19.613Z,13.11
2019-02-18T03:19:52.883Z,13.33
2019-02-18T03:22:24.146Z,13.39
2019-02-18T03:25:27.015Z,13.33
2019-02-18T03:28:44.620Z,13.30
2019-02-18T03:31:25.318Z,13.31
2019-02-18T03:34:24.905Z,13.16
2019-02-18T03:36:59.432Z,13.17
2019-02-18T03:39:32.901Z,13.30
2019-02-18T03:42:09.807Z,13.22
2019-02-18T03:44:42.918Z,13.29
2019-02-18T03:47:18.072Z,13.18
2019-02-18T03:49:49.007Z,13.39
2019-02-18T03:52:19.353Z,13.25
2019-02-18T03:54:51.111Z,13.29
2019-02-18T03:57:26.915Z,13.27
2019-02-18T03:59:59.756Z,13.25
2019-02-18T04:06:02.922Z,13.28
2019-02-18T04:08:42.893Z,13.26
2019-02-18T04:11:08.303Z,12.84
2019-02-18T04:13:38.876Z,13.18
2019-02-18T04:16:14.215Z,13.01
2019-02-18T04:18:53.732Z,13.10
2019-02-18T04:21:31.210Z,13.01
2019-02-18T04:24:02.284Z,13.11
2019-02-18T04:26:34.338Z,12.83
2019-02-18T04:29:05.422Z,12.85
2019-02-18T04:31:38.589Z,12.53
2019-02-18T04:34:12.271Z,12.99
2019-02-18T04:36:44.849Z,12.37
2019-02-18T04:39:15.550Z,12.69
2019-02-18T04:41:45.759Z,12.80
2019-02-18T04:44:16.422Z,12.76
2019-02-18T04:46:53.311Z,12.93
2019-02-18T04:49:35.927Z,13.15
2019-02-18T04:52:08.636Z,13.24
2019-02-18T04:54:40.553Z,12.94
2019-02-18T04:57:13.327Z,12.81
2019-02-18T04:59:48.071Z,12.92
2019-02-18T05:02:22.639Z,12.56
2019-02-18T05:04:54.144Z,13.05
2019-02-18T05:07:26.505Z,12.33
2019-02-18T05:09:59.542Z,12.57
2019-02-18T05:12:33.253Z,12.58
2019-02-18T05:15:06.427Z,12.87
2019-02-18T05:17:42.044Z,12.95
2019-02-18T05:20:15.289Z,12.92
2019-02-18T05:22:49.831Z,12.97
2019-02-18T05:25:22.811Z,12.94
2019-02-18T05:27:57.754Z,12.94
2019-02-18T05:30:34.963Z,12.78
2019-02-18T05:33:11.046Z,12.77
2019-02-18T05:35:44.289Z,12.74
2019-02-18T05:38:16.788Z,12.80
2019-02-18T05:40:48.960Z,12.81
2019-02-18T05:43:20.974Z,12.53
2019-02-18T05:45:57.321Z,12.72
2019-02-18T05:48:29.302Z,12.66
2019-02-18T05:51:02.743Z,12.40
2019-02-18T05:53:33.727Z,12.41
2019-02-18T05:56:12.736Z,12.31
2019-02-18T06:02:39.347Z,12.37
2019-02-18T06:05:13.974Z,12.16
2019-02-18T06:07:47.628Z,12.46
2019-02-18T06:10:20.028Z,12.42
2019-02-18T06:12:54.853Z,12.15
2019-02-18T06:15:28.372Z,12.07
2019-02-18T06:18:00.621Z,12.20
2019-02-18T06:20:31.794Z,11.82
2019-02-18T06:23:03.354Z,11.95
2019-02-18T06:25:34.857Z,12.18
2019-02-18T06:28:08.333Z,12.21
2019-02-18T06:30:43.276Z,11.97
2019-02-18T06:33:16.434Z,12.13
2019-02-18T06:35:49.388Z,12.26
2019-02-18T06:38:20.552Z,12.51
2019-02-18T06:40:52.147Z,12.55
2019-02-18T06:43:23.409Z,12.64
2019-02-18T06:46:05.353Z,12.71
2019-02-18T06:48:39.581Z,11.99
2019-02-18T06:51:11.086Z,11.90
2019-02-18T06:53:44.522Z,12.28
2019-02-18T06:56:26.497Z,12.40
2019-02-18T06:59:09.282Z,12.30
2019-02-18T07:01:59.733Z,12.29
2019-02-18T07:04:51.217Z,12.21
2019-02-18T07:07:30.086Z,12.18
2019-02-18T07:10:11.778Z,12.06
2019-02-18T07:12:46.697Z,11.81
2019-02-18T07:15:17.226Z,12.00
2019-02-18T07:17:47.404Z,11.81
2019-02-18T07:20:18.300Z,11.61
2019-02-18T07:22:49.761Z,11.92
2019-02-18T07:25:20.780Z,11.95
2019-02-18T07:27:51.402Z,11.63
2019-02-18T07:30:25.359Z,11.64
2019-02-18T07:32:57.209Z,12.00
2019-02-18T07:35:29.286Z,12.13
2019-02-18T07:38:02.118Z,12.23
2019-02-18T07:40:34.911Z,12.31
2019-02-18T07:43:08.411Z,12.54
2019-02-18T07:45:40.846Z,12.71
2019-02-18T07:48:11.389Z,12.15
2019-02-18T07:50:45.545Z,12.89
2019-02-18T07:53:17.614Z,12.54
2019-02-18T07:55:49.739Z,12.71
2019-02-18T07:58:20.313Z,12.98
2019-02-18T08:00:53.912Z,12.67
2019-02-18T08:03:25.881Z,12.68
2019-02-18T08:05:56.705Z,12.49
2019-02-18T08:08:28.417Z,12.72
2019-02-18T08:11:01.310Z,12.52
2019-02-18T08:13:34.746Z,12.96
2019-02-18T08:16:10.384Z,13.12
2019-02-18T08:18:47.483Z,13.24
2019-02-18T08:21:18.653Z,13.15
2019-02-18T08:24:00.259Z,12.66
2019-02-18T08:26:33.681Z,12.21
2019-02-18T08:29:07.915Z,12.11
2019-02-18T08:31:40.497Z,12.85
2019-02-18T08:34:10.752Z,12.95
2019-02-18T08:36:48.436Z,12.61
2019-02-18T08:39:25.672Z,12.78
2019-02-18T08:41:58.967Z,13.09
2019-02-18T08:44:33.519Z,13.30
2019-02-18T08:47:05.454Z,13.19
2019-02-18T08:49:40.387Z,13.60
2019-02-18T08:52:12.706Z,13.95
2019-02-18T08:54:56.262Z,13.95
2019-02-18T08:57:23.225Z,13.83
2019-02-18T08:59:55.722Z,13.68
2019-02-18T09:02:27.403Z,13.58
2019-02-18T09:04:59.016Z,13.63
2019-02-18T09:07:31.665Z,13.79
2019-02-18T09:10:04.591Z,13.39
2019-02-18T09:12:37.309Z,13.46
2019-02-18T09:15:10.588Z,13.28
2019-02-18T09:17:42.976Z,13.62
2019-02-18T09:20:14.731Z,13.74
2019-02-18T09:23:04.771Z,13.24
2019-02-18T09:25:45.426Z,13.77
2019-02-18T09:28:18.775Z,14.10
2019-02-18T09:30:55.404Z,13.96
2019-02-18T09:33:26.117Z,14.45
2019-02-18T09:36:04.679Z,14.25
2019-02-18T09:38:36.594Z,14.34
2019-02-18T09:41:08.865Z,14.17
2019-02-18T09:43:43.048Z,14.49
2019-02-18T09:46:14.539Z,14.73
2019-02-18T09:48:44.824Z,14.99
2019-02-18T09:51:19.640Z,14.48
2019-02-18T09:53:50.202Z,14.96
2019-02-18T09:56:23.060Z,15.31
2019-02-18T09:58:54.506Z,15.46
2019-02-18T10:01:26.011Z,15.62
2019-02-18T10:03:56.361Z,15.79
2019-02-18T10:06:26.832Z,16.07
2019-02-18T10:08:57.947Z,16.07
2019-02-18T10:11:29.028Z,16.39
2019-02-18T10:14:01.212Z,16.52
2019-02-18T10:16:31.723Z,16.70
2019-02-18T10:19:03.408Z,16.25
2019-02-18T10:21:36.274Z,16.73
2019-02-18T10:24:08.299Z,16.29
2019-02-18T10:26:42.043Z,15.83
2019-02-18T10:29:13.165Z,16.01
2019-02-18T10:31:45.832Z,16.69
2019-02-18T10:34:18.355Z,17.28
2019-02-18T10:36:53.685Z,17.55
2019-02-18T10:39:26.169Z,17.93
2019-02-18T10:41:57.228Z,17.56
2019-02-18T10:44:34.491Z,18.17
2019-02-18T10:47:10.334Z,18.29
2019-02-18T10:49:41.779Z,18.20
2019-02-18T10:52:18.290Z,18.46
2019-02-18T10:54:55.346Z,18.62
2019-02-18T10:57:38.146Z,18.44
2019-02-18T11:00:12.508Z,18.41
2019-02-18T11:02:46.985Z,19.08
2019-02-18T11:05:30.451Z,19.53
2019-02-18T11:08:03.727Z,19.08
2019-02-18T11:10:37.710Z,18.98
2019-02-18T11:13:11.992Z,19.72
2019-02-18T11:15:45.512Z,19.20
2019-02-18T11:18:17.051Z,19.65
2019-02-18T11:20:48.585Z,19.90
2019-02-18T11:23:21.031Z,20.12
2019-02-18T11:25:54.119Z,20.68
2019-02-18T11:28:24.786Z,21.07
2019-02-18T11:31:04.823Z,20.88
2019-02-18T11:33:40.301Z,21.07
2019-02-18T11:36:12.457Z,21.69
2019-02-18T11:38:44.830Z,22.05
2019-02-18T11:41:26.845Z,23.22
2019-02-18T11:43:54.550Z,24.32
2019-02-18T11:46:30.925Z,25.29
2019-02-18T11:49:05.552Z,26.37
2019-02-18T11:51:37.866Z,27.86
2019-02-18T11:54:09.726Z,28.96
2019-02-18T11:56:42.958Z,29.47
2019-02-18T11:59:24.242Z,31.04
2019-02-18T12:01:50.223Z,29.38
2019-02-18T12:04:22.392Z,28.02
2019-02-18T12:06:58.990Z,26.46
2019-02-18T12:09:30.045Z,26.21
2019-02-18T12:12:01.792Z,24.93
2019-02-18T12:14:37.443Z,23.83
2019-02-18T12:17:08.035Z,23.83
2019-02-18T12:19:41.313Z,24.63
2019-02-18T12:22:16.262Z,26.87
2019-02-18T12:24:56.357Z,28.87
2019-02-18T12:27:26.837Z,30.18
2019-02-18T12:29:58.532Z,29.71
2019-02-18T12:32:33.463Z,30.61
2019-02-18T12:38:03.635Z,32.14
2019-02-18T12:40:34.918Z,31.60
2019-02-18T12:43:07.033Z,31.65
2019-02-18T12:45:39.273Z,32.70
2019-02-18T12:48:29.294Z,31.86
2019-02-18T12:51:05.145Z,32.02
2019-02-18T12:53:48.817Z,31.93
2019-02-18T12:56:21.053Z,30.53
2019-02-18T12:58:54.973Z,30.26
2019-02-18T13:01:28.302Z,30.63
2019-02-18T13:04:09.739Z,30.43
2019-02-18T13:06:44.733Z,30.20
2019-02-18T13:09:20.800Z,30.33
2019-02-18T13:11:58.725Z,30.25
2019-02-18T13:14:28.655Z,31.22
2019-02-18T13:17:16.636Z,30.80
2019-02-18T13:19:55.006Z,32.46
2019-02-18T13:22:25.537Z,32.73
2019-02-18T13:24:56.788Z,33.14
2019-02-18T13:27:28.136Z,34.25
2019-02-18T13:30:06.211Z,34.86
2019-02-18T13:32:42.837Z,35.27
2019-02-18T13:35:17.900Z,35.22
2019-02-18T13:37:51.077Z,35.96
2019-02-18T13:40:37.801Z,36.65
2019-02-18T13:43:20.504Z,36.38
2019-02-18T13:45:58.233Z,34.76
2019-02-18T13:48:30.612Z,34.58
2019-02-18T13:51:06.745Z,32.46
2019-02-18T13:53:39.479Z,31.35
2019-02-18T13:56:11.391Z,28.68
2019-02-18T13:58:43.172Z,28.49
2019-02-18T14:01:20.221Z,26.29
2019-02-18T14:03:57.921Z,25.88
2019-02-18T14:06:29.029Z,25.18
2019-02-18T14:09:01.602Z,25.11
2019-02-18T14:11:34.271Z,23.88
2019-02-18T14:14:07.700Z,23.70
2019-02-18T14:16:43.436Z,23.56
2019-02-18T14:19:14.371Z,22.33
2019-02-18T14:21:48.396Z,22.71
2019-02-18T14:24:22.321Z,22.27
2019-02-18T14:27:03.745Z,22.36
2019-02-18T14:29:37.732Z,22.14
2019-02-18T14:32:09.750Z,21.64
2019-02-18T14:34:42.596Z,21.32
2019-02-18T14:37:15.780Z,20.97
2019-02-18T14:39:49.857Z,21.52
2019-02-18T14:42:24.504Z,21.01
2019-02-18T14:44:56.216Z,21.68
2019-02-18T14:47:28.978Z,21.48
2019-02-18T14:50:03.118Z,21.67
2019-02-18T14:52:34.387Z,21.70
2019-02-18T14:55:06.689Z,21.62
2019-02-18T14:57:41.306Z,21.85
2019-02-18T15:00:24.368Z,21.85
2019-02-18T15:03:03.035Z,21.65
2019-02-18T15:05:36.778Z,21.25
2019-02-18T15:08:10.965Z,21.15
2019-02-18T15:10:42.610Z,21.19
2019-02-18T15:13:18.777Z,21.06
2019-02-18T15:15:51.192Z,20.53
2019-02-18T15:18:24.157Z,19.88
2019-02-18T15:20:55.447Z,20.59
2019-02-18T15:23:27.099Z,20.33
2019-02-18T15:26:02.387Z,20.28
2019-02-18T15:28:35.066Z,20.48
2019-02-18T15:31:08.590Z,19.17
2019-02-18T15:33:44.751Z,20.07
2019-02-18T15:36:16.208Z,20.33
2019-02-18T15:38:47.334Z,20.42
2019-02-18T15:41:19.092Z,20.56
2019-02-18T15:43:52.257Z,20.40
2019-02-18T15:46:26.582Z,20.25
2019-02-18T15:48:59.775Z,20.18
2019-02-18T15:51:30.687Z,19.05
2019-02-18T15:54:01.854Z,19.50
2019-02-18T15:56:34.987Z,19.12
2019-02-18T15:59:06.528Z,19.01
2019-02-18T16:01:41.996Z,19.36
2019-02-18T16:04:17.948Z,19.26
2019-02-18T16:06:53.289Z,19.55
2019-02-18T16:09:24.479Z,19.69
2019-02-18T16:11:55.070Z,19.57
2019-02-18T16:14:31.271Z,19.61
2019-02-18T16:17:03.875Z,20.02
2019-02-18T16:19:56.340Z,19.77
2019-02-18T16:22:30.284Z,19.77
2019-02-18T16:25:03.942Z,19.82
2019-02-18T16:27:40.052Z,19.66
2019-02-18T16:30:16.507Z,19.59
2019-02-18T16:32:53.655Z,19.69
2019-02-18T16:35:31.551Z,19.75
2019-02-18T16:38:07.030Z,19.70
2019-02-18T16:40:42.495Z,19.47
2019-02-18T16:43:12.891Z,19.44
2019-02-18T16:45:46.210Z,19.37
2019-02-18T16:48:20.956Z,19.52
2019-02-18T16:50:53.023Z,19.27
2019-02-18T16:53:24.312Z,18.96
2019-02-18T16:55:57.181Z,19.27
2019-02-18T17:02:10.709Z,19.34
2019-02-18T17:04:56.767Z,19.13
2019-02-18T17:07:33.072Z,19.28
2019-02-18T17:10:14.531Z,19.24
2019-02-18T17:12:49.599Z,19.20
2019-02-18T17:15:21.826Z,19.12
2019-02-18T17:17:56.985Z,19.24
2019-02-18T17:20:29.635Z,19.47
2019-02-18T17:23:03.134Z,19.68
2019-02-18T17:25:39.936Z,19.55
2019-02-18T17:28:15.279Z,19.19
2019-02-18T17:30:47.699Z,19.43
2019-02-18T17:33:27.704Z,19.03
2019-02-18T17:35:58.683Z,19.30
2019-02-18T17:38:35.698Z,19.33
2019-02-18T17:44:04.738Z,19.60
2019-02-18T17:46:52.223Z,19.57
2019-02-18T17:49:34.384Z,19.61
2019-02-18T17:52:12.784Z,19.34
2019-02-18T17:55:25.454Z,19.29
2019-02-18T17:58:14.456Z,19.24
2019-02-18T18:04:01.379Z,19.31
2019-02-18T18:06:35.898Z,19.15
2019-02-18T18:09:14.379Z,19.29
2019-02-18T18:12:10.056Z,19.12
2019-02-18T18:14:46.979Z,18.85
2019-02-18T18:17:22.133Z,19.04
2019-02-18T18:19:58.551Z,19.13
2019-02-18T18:22:32.181Z,19.17
2019-02-18T18:25:03.786Z,19.02
2019-02-18T18:27:34.803Z,19.10
2019-02-18T18:30:13.388Z,18.97
2019-02-18T18:32:47.333Z,19.04
2019-02-18T18:35:18.690Z,19.13
2019-02-18T18:37:49.726Z,19.01
2019-02-18T18:40:25.428Z,18.92
2019-02-18T18:43:04.191Z,18.98
2019-02-18T18:45:53.591Z,18.84
2019-02-18T18:48:24.920Z,18.88
2019-02-18T18:50:56.139Z,18.69
2019-02-18T18:53:28.230Z,18.82
2019-02-18T18:55:59.912Z,18.62
2019-02-18T18:58:32.524Z,18.82
2019-02-18T19:01:12.438Z,18.85
2019-02-18T19:03:45.236Z,18.85
2019-02-18T19:06:21.999Z,18.83
2019-02-18T19:08:54.377Z,18.80
2019-02-18T19:11:24.997Z,18.78
2019-02-18T19:13:55.922Z,18.79
2019-02-18T19:16:36.238Z,18.75
2019-02-18T19:19:08.421Z,18.68
2019-02-18T19:21:40.380Z,18.69
2019-02-18T19:24:11.051Z,18.60
2019-02-18T19:26:42.364Z,18.64
2019-02-18T19:29:18.242Z,18.62
2019-02-18T19:31:51.019Z,18.60
2019-02-18T19:34:25.586Z,18.54
2019-02-18T19:36:58.717Z,18.51
2019-02-18T19:39:32.155Z,18.18
2019-02-18T19:42:17.927Z,17.87
2019-02-18T19:45:05.680Z,18.06
2019-02-18T19:47:39.313Z,18.17
2019-02-18T19:50:18.247Z,18.15
2019-02-18T19:52:58.870Z,18.17
2019-02-18T19:55:31.198Z,18.07
2019-02-18T19:58:12.249Z,18.08
2019-02-18T20:00:49.977Z,18.05
2019-02-18T20:03:25.761Z,17.98
2019-02-18T20:06:07.564Z,17.90
2019-02-18T20:08:48.638Z,17.94
2019-02-18T20:11:25.867Z,17.66
2019-02-18T20:18:59.705Z,17.62
2019-02-18T20:21:56.489Z,17.57
2019-02-18T20:24:36.281Z,17.38
2019-02-18T20:27:28.463Z,17.35
2019-02-18T20:30:00.954Z,17.58
2019-02-18T20:32:42.656Z,17.37
2019-02-18T20:35:26.060Z,17.42
2019-02-18T20:38:37.004Z,17.51
2019-02-18T20:41:14.398Z,17.62
2019-02-18T20:43:51.768Z,17.63
2019-02-18T20:46:24.655Z,17.35
2019-02-18T20:48:59.675Z,16.85
2019-02-18T20:51:49.222Z,17.05
2019-02-18T20:54:23.517Z,17.49
2019-02-18T20:56:58.366Z,17.63
2019-02-18T20:59:39.468Z,17.67
2019-02-18T21:02:13.831Z,17.50
2019-02-18T21:04:51.235Z,17.71
2019-02-18T21:07:38.563Z,17.58
2019-02-18T21:10:13.404Z,17.73
2019-02-18T21:12:47.130Z,17.71
2019-02-18T21:15:19.388Z,17.81
2019-02-18T21:17:50.527Z,17.76
2019-02-18T21:20:25.467Z,17.79
2019-02-18T21:22:57.231Z,17.69
2019-02-18T21:25:45.453Z,17.84
2019-02-18T21:28:18.331Z,17.71
2019-02-18T21:31:08.060Z,17.77
2019-02-18T21:33:42.875Z,17.73
2019-02-18T21:36:16.268Z,17.48
2019-02-18T21:38:50.378Z,17.66
2019-02-18T21:41:38.993Z,17.68
2019-02-18T21:44:25.001Z,17.65
2019-02-18T21:46:52.758Z,17.68
2019-02-18T21:49:27.562Z,17.52
2019-02-18T21:51:58.963Z,17.36
2019-02-18T21:54:53.958Z,17.57
2019-02-18T21:57:31.759Z,17.67
2019-02-18T22:00:17.736Z,17.63
2019-02-18T22:02:55.919Z,17.66
2019-02-18T22:05:29.408Z,17.68
2019-02-18T22:08:07.578Z,17.52
2019-02-18T22:10:41.919Z,17.41
2019-02-18T22:13:26.172Z,17.33
2019-02-18T22:16:00.478Z,17.51
2019-02-18T22:18:37.075Z,17.48
2019-02-18T22:21:11.748Z,17.56
2019-02-18T22:23:47.177Z,17.59
2019-02-18T22:29:21.519Z,17.57
2019-02-18T22:31:56.980Z,17.46
2019-02-18T22:34:29.746Z,17.51
2019-02-18T22:37:13.941Z,17.51
2019-02-18T22:39:46.555Z,17.48
2019-02-18T22:42:24.806Z,17.40
2019-02-18T22:44:55.933Z,17.37
2019-02-18T22:47:27.833Z,17.19
2019-02-18T22:50:01.655Z,17.18
2019-02-18T22:52:35.549Z,17.31
2019-02-18T22:55:16.039Z,17.33
2019-02-18T22:57:53.373Z,17.27
2019-02-18T23:00:58.764Z,17.29
2019-02-18T23:03:30.042Z,17.10
2019-02-18T23:06:21.459Z,17.11
2019-02-18T23:08:56.950Z,17.20
2019-02-18T23:11:45.315Z,17.25
2019-02-18T23:14:17.249Z,17.28
2019-02-18T23:16:50.100Z,17.21
2019-02-18T23:19:23.474Z,17.31
2019-02-18T23:21:59.190Z,17.27
2019-02-18T23:24:34.703Z,17.28
2019-02-18T23:27:07.970Z,17.30
2019-02-18T23:29:41.904Z,17.27
2019-02-18T23:32:18.815Z,17.13
2019-02-18T23:34:54.231Z,17.03
2019-02-18T23:37:27.956Z,16.68
2019-02-18T23:39:59.471Z,16.66
2019-02-18T23:42:30.729Z,16.59
2019-02-18T23:45:05.516Z,16.59
2019-02-18T23:47:42.377Z,16.43
2019-02-18T23:50:15.878Z,16.42
2019-02-18T23:52:48.116Z,16.16
2019-02-18T23:55:21.829Z,16.28
2019-02-18T23:57:56.335Z,16.31
